Дата Пункты Температура Давл., мм. Влажн., % Ветер Погодные явления
Воздуха Воды Направл. Скорость
21.08.19 12:00 Одесса 29.0 22.0 761 42 Пн-С 2 12 ГОДИН
21.08.19 09:00 Одесса 26.0 22.0 762 48 Пн 2 09 ГОДИН
21.08.19 06:00 Одесса 21.0 22.0 761 60 Пн 0 06 ГОДИН
21.08.19 03:00 Одесса 23.0 22.0 762 54 Пн 1 03 ГОДИНИ
20.08.19 09:00 Одесса 24.0 22.0 762 51 Пн 0 21 ГОДИНУ
20.08.19 06:00 Одесса 28.0 22.0 762 33 Пн 0 18 ГОДИН
20.08.19 03:00 Одесса 27.0 22.0 762 48 Пд 2 15 ГОДИН
20.08.19 12:00 Одесса 25.0 22.0 763 67 Пд-С 1 12 ГОДИН
20.08.19 09:00 Одесса 25.0 22.0 762 44 Пн 1 09 ГОДИН
20.08.19 06:00 Одесса 20.0 22.0 762 61 Пн-З 1 06 ГОДИН
20.08.19 03:00 Одесса 20.0 22.0 761 56 З 1 03 ГОДИНИ
19.08.19 09:00 Одесса 21.0 22.0 761 53 З 1 21 ГОДИНУ
19.08.19 06:00 Одесса 26.0 22.0 761 36 Пд-З 1 18 ГОДИН
19.08.19 03:00 Одесса 25.0 22.0 761 48 Пд 3 15 ГОДИН
19.08.19 12:00 Одесса 24.0 22.0 761 53 Пд-С 2 12 ГОДИН
19.08.19 09:00 Одесса 24.0 22.0 761 54 Пн-С 2 09 ГОДИН
19.08.19 06:00 Одесса 17.0 22.0 760 72 Пн 0 06 ГОДИН
19.08.19 03:00 Одесса 17.0 22.0 759 76 З 2 03 ГОДИНИ
18.08.19 09:00 Одесса 21.0 22.0 758 66 З 2 21 ГОДИНУ
18.08.19 06:00 Одесса 26.0 22.0 758 33 Пн-З 1 18 ГОДИН
Количество строк
1 2 3 4 5 6 7 8 9 10
Page 10 of 530